• Join FlightAware (Why Join?)
  • Login
  • US Flag 
06:45AM EDT


 

Airport Tracker/Info


-or-


 

Live Flight TrackerFlight Track Log ✈ AFL150 ✈ 10-Mar-2014 ✈ UUEE / SVO - MUHA / HAV

Flight Track Log - Related Links

Times and Time Zones

All times are in EDT time to prevent confusion due to time zone crossing. See the AFL150 flight status page for this flight to view local times or setup timezone preferences in your user account.

Time Position Orientation Groundspeed Altitude Reporting Facility
EDT Latitude Longitude Course Direction KTS MPH feet Rate Location/Type
05:14AM 56.2043 36.7970 307° West  Level Estimated
05:15AM 56.2737 36.6266 306° West  Level Estimated
05:16AM 56.3429 36.4554 306° West  Level Estimated
05:17AM 56.4119 36.2837 306° West  Level Estimated
05:18AM 56.4807 36.1114 306° West  Level Estimated
05:19AM 56.5491 35.9384 306° West  Level Estimated
05:20AM 56.6174 35.7648 306° West  Level Estimated
05:21AM 56.6854 35.5906 305° West  Level Estimated
05:22AM 56.7532 35.4157 305° West  Level Estimated
05:23AM 56.8207 35.2402 305° West  Level Estimated
05:24AM 56.8880 35.0641 305° West  Level Estimated
05:25AM 56.9550 34.8874 305° West  Level Estimated
05:26AM 57.0218 34.7100 305° West  Level Estimated
05:27AM 57.0883 34.5320 305° West  Level Estimated
05:28AM 57.1546 34.3533 304° West  Level Estimated
05:29AM 57.2206 34.1740 304° West  Level Estimated
05:30AM 57.2864 33.9940 304° West  Level Estimated
05:31AM 57.3519 33.8134 304° West  Level Estimated
05:32AM 57.4171 33.6322 304° West  Level Estimated
05:33AM 57.4821 33.4503 304° West  Level Estimated
05:34AM 57.5469 33.2678 304° West  Level Estimated
05:35AM 57.6113 33.0846 303° West  Level Estimated
05:36AM 57.6755 32.9008 303° West  Level Estimated
05:37AM 57.7394 32.7163 303° West  Level Estimated
05:38AM 57.8031 32.5312 303° West  Level Estimated
05:39AM 57.8665 32.3454 303° West  Level Estimated
05:40AM 57.9296 32.1590 303° West  Level Estimated
05:41AM 57.9924 31.9719 302° West  Level Estimated
05:42AM 58.0550 31.7841 302° West  Level Estimated
05:43AM 58.1173 31.5958 302° West  Level Estimated
05:44AM 58.1793 31.4067 302° West  Level Estimated
05:45AM 58.2410 31.2170 302° West  Level Estimated
05:46AM 58.3025 31.0266 302° West  Level Estimated
05:47AM 58.3636 30.8356 301° West  Level Estimated
05:48AM 58.4245 30.6438 301° West  Level Estimated
05:49AM 58.4851 30.4515 301° West  Level Estimated
05:50AM 58.5454 30.2584 301° West  Level Estimated
05:51AM 58.6054 30.0648 301° West  Level Estimated
05:52AM 58.6651 29.8704 301° West  Level Estimated
05:53AM 58.7245 29.6754 300° West  Level Estimated
05:54AM 58.7837 29.4797 300° West  Level Estimated
05:55AM 58.8425 29.2833 300° West  Level Estimated
05:56AM 58.9010 29.0863 300° West  Level Estimated
05:57AM 58.9593 28.8886 300° West  Level Estimated
05:58AM 59.0172 28.6903 300° West  Level Estimated
05:59AM 59.0748 28.4913 299° West  Level Estimated
06:00AM 59.1321 28.2916 299° West  Level Estimated
06:01AM 59.1892 28.0912 299° West  Level Estimated
06:02AM 59.2458 27.8902 299° West  Level Estimated
06:03AM 59.3022 27.6885 299° West  Level Estimated
06:04AM 59.3583 27.4861 299° West  Level Estimated
06:05AM 59.4141 27.2831 298° West  Level Estimated
06:06AM 59.4695 27.0794 298° West  Level Estimated
06:07AM 59.5247 26.8751 298° West  Level Estimated
06:08AM 59.5795 26.6700 298° West  Level Estimated
06:09AM 59.6340 26.4643 298° West  Level Estimated
06:10AM 59.6881 26.2580 298° West  Level Estimated
06:11AM 59.7420 26.0509 297° West  Level Estimated
06:12AM 59.7955 25.8432 297° West  Level Estimated
06:13AM 59.8487 25.6349 297° West  Level Estimated
06:14AM 59.9015 25.4258 297° West  Level Estimated
06:15AM 59.9540 25.2162 297° West  Level Estimated
06:16AM 60.0062 25.0058 296° West  Level Estimated
06:17AM 60.0581 24.7948 296° West  Level Estimated
06:18AM 60.1096 24.5831 296° West  Level Estimated
06:19AM 60.1608 24.3708 296° West  Level Estimated
06:20AM 60.2116 24.1578 296° West  Level Estimated
06:21AM 60.2621 23.9441 296° West  Level Estimated
06:22AM 60.3123 23.7298 295° West  Level Estimated
06:23AM 60.3621 23.5148 295° West  Level Estimated
06:24AM 60.4115 23.2992 295° West  Level Estimated
06:25AM 60.4607 23.0829 295° West  Level Estimated
06:26AM 60.5094 22.8659 295° West  Level Estimated
06:27AM 60.5578 22.6484 294° West  Level Estimated
06:28AM 60.6059 22.4301 294° West  Level Estimated
06:29AM 60.6535 22.2112 294° West  Level Estimated
06:30AM 60.7009 21.9917 294° West  Level Estimated
06:31AM 60.7479 21.7715 294° West  Level Estimated
06:32AM 60.7945 21.5507 293° West  Level Estimated
06:33AM 60.8407 21.3292 293° West  Level Estimated
06:34AM 60.8866 21.1071 293° West  Level Estimated
06:35AM 60.9321 20.8844 293° West  Level Estimated
06:36AM 60.9773 20.6610 293° West  Level Estimated
06:37AM 61.0220 20.4370 293° West  Level Estimated
06:38AM 61.0664 20.2124 292° West  Level Estimated
06:39AM 61.1105 19.9871 292° West  Level Estimated
06:40AM 61.1541 19.7612 292° West  Level Estimated
06:41AM 61.1974 19.5347 292° West  Level Estimated
06:42AM 61.2403 19.3076 292° West  Level Estimated
06:43AM 61.2828 19.0798 291° West  Level Estimated
06:44AM 61.3250 18.8514 291° West  Level Estimated
06:45AM 61.3667 18.6225 291° West  Level Estimated
06:46AM 61.4081 18.3929 291° West  Level Estimated
06:47AM 61.4491 18.1627 291° West  Level Estimated
06:48AM 61.4897 17.9319 290° West  Level Estimated
06:49AM 61.5299 17.7005 290° West  Level Estimated
06:50AM 61.5697 17.4685 290° West  Level Estimated
06:51AM 61.6091 17.2359 290° West  Level Estimated
06:52AM 61.6481 17.0027 290° West  Level Estimated
06:53AM 61.6867 16.7689 289° West  Level Estimated
06:54AM 61.7249 16.5346 289° West  Level Estimated
06:55AM 61.7627 16.2997 289° West  Level Estimated
06:56AM 61.8002 16.0642 289° West  Level Estimated
06:57AM 61.8372 15.8281 288° West  Level Estimated
06:58AM 61.8738 15.5915 288° West  Level Estimated
06:59AM 61.9100 15.3543 288° West  Level Estimated
07:00AM 61.9458 15.1165 288° West  Level Estimated
07:01AM 61.9811 14.8782 288° West  Level Estimated
07:02AM 62.0161 14.6393 287° West  Level Estimated
07:03AM 62.0507 14.3999 287° West  Level Estimated
07:04AM 62.0848 14.1599 287° West  Level Estimated
07:05AM 62.1185 13.9194 287° West  Level Estimated
07:06AM 62.1518 13.6784 287° West  Level Estimated
07:07AM 62.1847 13.4369 286° West  Level Estimated
07:08AM 62.2172 13.1948 286° West  Level Estimated
07:09AM 62.2492 12.9522 286° West  Level Estimated
07:10AM 62.2808 12.7091 286° West  Level Estimated
07:11AM 62.3120 12.4655 286° West  Level Estimated
07:12AM 62.3428 12.2214 285° West  Level Estimated
07:13AM 62.3731 11.9768 285° West  Level Estimated
07:14AM 62.4030 11.7317 285° West  Level Estimated
07:15AM 62.4325 11.4861 285° West  Level Estimated
07:16AM 62.4615 11.2400 284° West  Level Estimated
07:17AM 62.4901 10.9935 284° West  Level Estimated
07:18AM 62.5183 10.7464 284° West  Level Estimated
07:19AM 62.5460 10.4990 284° West  Level Estimated
07:20AM 62.5733 10.2510 284° West  Level Estimated
07:21AM 62.6002 10.0026 283° West  Level Estimated
07:22AM 62.6266 9.7538 283° West  Level Estimated
07:23AM 62.6525 9.5045 283° West  Level Estimated
07:24AM 62.6781 9.2548 283° West  Level Estimated
07:25AM 62.7032 9.0047 282° West  Level Estimated
07:26AM 62.7278 8.7541 282° West  Level Estimated
07:27AM 62.7520 8.5031 282° West  Level Estimated
07:28AM 62.7757 8.2518 282° West  Level Estimated
07:29AM 62.7990 8.0000 282° West  Level Estimated
07:30AM 62.8219 7.7478 281° West  Level Estimated
07:31AM 62.8443 7.4952 281° West  Level Estimated
07:32AM 62.8662 7.2423 281° West  Level Estimated
07:33AM 62.8877 6.9890 281° West  Level Estimated
07:34AM 62.9087 6.7353 280° West  Level Estimated
07:35AM 62.9293 6.4812 280° West  Level Estimated
07:36AM 62.9494 6.2268 280° West  Level Estimated
07:37AM 62.9691 5.9721 280° West  Level Estimated
07:38AM 62.9883 5.7170 280° West  Level Estimated
07:39AM 63.0070 5.4616 279° West  Level Estimated
07:40AM 63.0253 5.2058 279° West  Level Estimated
07:41AM 63.0431 4.9498 279° West  Level Estimated
07:42AM 63.0605 4.6934 279° West  Level Estimated
07:43AM 63.0774 4.4367 278° West  Level Estimated
07:44AM 63.0938 4.1798 278° West  Level Estimated
07:45AM 63.1097 3.9225 278° West  Level Estimated
07:46AM 63.1252 3.6650 278° West  Level Estimated
07:47AM 63.1403 3.4072 277° West  Level Estimated
07:48AM 63.1548 3.1491 277° West  Level Estimated
07:49AM 63.1689 2.8908 277° West  Level Estimated
07:50AM 63.1825 2.6323 277° West  Level Estimated
07:51AM 63.1957 2.3735 277° West  Level Estimated
07:52AM 63.2084 2.1144 276° West  Level Estimated
07:53AM 63.2206 1.8552 276° West  Level Estimated
07:54AM 63.2323 1.5957 276° West  Level Estimated
07:55AM 63.2436 1.3360 276° West  Level Estimated
07:56AM 63.2544 1.0761 275° West  Level Estimated
07:57AM 63.2647 0.8161 275° West  Level Estimated
07:58AM 63.2745 0.5558 275° West  Level Estimated
07:59AM 63.2839 0.2954 275° West  Level Estimated
08:00AM 63.2928 0.0348 274° West  Level Estimated
08:01AM 63.3012 -0.2259 274° West  Level Estimated
08:02AM 63.3091 -0.4868 274° West  Level Estimated
08:03AM 63.3166 -0.7479 274° West  Level Estimated
08:04AM 63.3236 -1.0090 274° West  Level Estimated
08:05AM 63.3301 -1.2703 273° West  Level Estimated
08:06AM 63.3361 -1.5317 273° West  Level Estimated
08:07AM 63.3416 -1.7932 273° West  Level Estimated
08:08AM 63.3467 -2.0548 273° West  Level Estimated
08:09AM 63.3513 -2.3165 272° West  Level Estimated
08:10AM 63.3554 -2.5783 272° West  Level Estimated
08:11AM 63.3590 -2.8401 272° West  Level Estimated
08:12AM 63.3622 -3.1020 272° West  Level Estimated
08:13AM 63.3649 -3.3640 271° West  Level Estimated
08:14AM 63.3671 -3.6260 271° West  Level Estimated
08:15AM 63.3688 -3.8880 271° West  Level Estimated
08:16AM 63.3700 -4.1501 271° West  Level Estimated
08:17AM 63.3707 -4.4121 270° West  Level Estimated
08:18AM 63.3710 -4.6742 270° West  Level Estimated
08:19AM 63.3708 -4.9363 270° West  Level Estimated
08:20AM 63.3701 -5.1984 270° West  Level Estimated
08:21AM 63.3689 -5.4604 270° West  Level Estimated
08:22AM 63.3673 -5.7225 269° West  Level Estimated
08:23AM 63.3652 -5.9845 269° West  Level Estimated
08:24AM 63.3625 -6.2464 269° West  Level Estimated
08:25AM 63.3595 -6.5083 269° West  Level Estimated
08:26AM 63.3559 -6.7702 268° West  Level Estimated
08:27AM 63.3518 -7.0320 268° West  Level Estimated
08:28AM 63.3473 -7.2937 268° West  Level Estimated
08:29AM 63.3423 -7.5553 268° West  Level Estimated
08:30AM 63.3368 -7.8168 267° West  Level Estimated
08:31AM 63.3308 -8.0782 267° West  Level Estimated
08:32AM 63.3244 -8.3395 267° West  Level Estimated
08:33AM 63.3175 -8.6007 267° West  Level Estimated
08:34AM 63.3101 -8.8617 267° West  Level Estimated
08:35AM 63.3022 -9.1226 266° West  Level Estimated
08:36AM 63.2938 -9.3834 266° West  Level Estimated
08:37AM 63.2850 -9.6440 266° West  Level Estimated
08:38AM 63.2757 -9.9045 266° West  Level Estimated
08:39AM 63.2659 -10.1647 265° West  Level Estimated
08:40AM 63.2557 -10.4248 265° West  Level Estimated
08:41AM 63.2450 -10.6847 265° West  Level Estimated
08:42AM 63.2337 -10.9444 265° West  Level Estimated
08:43AM 63.2221 -11.2039 264° West  Level Estimated
08:44AM 63.2099 -11.4632 264° West  Level Estimated
08:45AM 63.1973 -11.7223 264° West  Level Estimated
08:46AM 63.1842 -11.9811 264° West  Level Estimated
08:47AM 63.1707 -12.2397 263° West  Level Estimated
08:48AM 63.1566 -12.4980 263° West  Level Estimated
08:49AM 63.1421 -12.7561 263° West  Level Estimated
08:50AM 63.1272 -13.0140 263° West  Level Estimated
08:51AM 63.1117 -13.2715 263° West  Level Estimated
08:52AM 63.0958 -13.5288 262° West  Level Estimated
08:53AM 63.0795 -13.7858 262° West  Level Estimated
08:54AM 63.0626 -14.0425 262° West  Level Estimated
08:55AM 63.0453 -14.2989 262° West  Level Estimated
08:56AM 63.0276 -14.5550 261° West  Level Estimated
08:57AM 63.0094 -14.8108 261° West  Level Estimated
08:58AM 62.9907 -15.0663 261° West  Level Estimated
08:59AM 62.9715 -15.3214 261° West  Level Estimated
09:00AM 62.9519 -15.5762 261° West  Level Estimated
09:01AM 62.9319 -15.8306 260° West  Level Estimated
09:02AM 62.9114 -16.0847 260° West  Level Estimated
09:03AM 62.8904 -16.3385 260° West  Level Estimated
09:04AM 62.8689 -16.5918 260° West  Level Estimated
09:05AM 62.8471 -16.8448 259° West  Level Estimated
09:06AM 62.8247 -17.0974 259° West  Level Estimated
09:07AM 62.8019 -17.3497 259° West  Level Estimated
09:08AM 62.7787 -17.6015 259° West  Level Estimated
09:09AM 62.7550 -17.8529 258° West  Level Estimated
09:10AM 62.7309 -18.1040 258° West  Level Estimated
09:11AM 62.7063 -18.3546 258° West  Level Estimated
09:12AM 62.6813 -18.6048 258° West  Level Estimated
09:13AM 62.6558 -18.8545 258° West  Level Estimated
09:14AM 62.6299 -19.1038 257° West  Level Estimated
09:15AM 62.6035 -19.3527 257° West  Level Estimated
09:16AM 62.5767 -19.6012 257° West  Level Estimated
09:17AM 62.5495 -19.8492 257° West  Level Estimated
09:18AM 62.5218 -20.0967 256° West  Level Estimated
09:19AM 62.4937 -20.3438 256° West  Level Estimated
09:20AM 62.4651 -20.5904 256° West  Level Estimated
09:21AM 62.4362 -20.8365 256° West  Level Estimated
09:22AM 62.4067 -21.0822 256° West  Level Estimated
09:23AM 62.3769 -21.3274 255° West  Level Estimated
09:24AM 62.3466 -21.5720 255° West  Level Estimated
09:25AM 62.3159 -21.8162 255° West  Level Estimated
09:26AM 62.2848 -22.0599 255° West  Level Estimated
09:27AM 62.2532 -22.3030 255° West  Level Estimated
09:28AM 62.2212 -22.5457 254° West  Level Estimated
09:29AM 62.1888 -22.7878 254° West  Level Estimated
09:30AM 62.1560 -23.0295 254° West  Level Estimated
09:31AM 62.1227 -23.2706 254° West  Level Estimated
09:32AM 62.0891 -23.5111 253° West  Level Estimated
09:33AM 62.0550 -23.7511 253° West  Level Estimated
09:34AM 62.0205 -23.9906 253° West  Level Estimated
09:35AM 61.9856 -24.2296 253° West  Level Estimated
09:36AM 61.9502 -24.4680 253° West  Level Estimated
09:37AM 61.9145 -24.7058 252° West  Level Estimated
09:38AM 61.8784 -24.9431 252° West  Level Estimated
09:39AM 61.8418 -25.1798 252° West  Level Estimated
09:40AM 61.8048 -25.4159 252° West  Level Estimated
09:41AM 61.7675 -25.6515 252° West  Level Estimated
09:42AM 61.7297 -25.8865 251° West  Level Estimated
09:43AM 61.6916 -26.1209 251° West  Level Estimated
09:44AM 61.6530 -26.3547 251° West  Level Estimated
09:45AM 61.6140 -26.5880 251° West  Level Estimated
09:46AM 61.5746 -26.8207 251° West  Level Estimated
09:47AM 61.5349 -27.0527 250° West  Level Estimated
09:48AM 61.4948 -27.2842 250° West  Level Estimated
09:49AM 61.4542 -27.5151 250° West  Level Estimated
09:50AM 61.4133 -27.7453 250° West  Level Estimated
09:51AM 61.3720 -27.9750 250° West  Level Estimated
09:52AM 61.3303 -28.2041 249° West  Level Estimated
09:53AM 61.2882 -28.4325 249° West  Level Estimated
09:54AM 61.2457 -28.6604 249° West  Level Estimated
09:55AM 61.2029 -28.8876 249° West  Level Estimated
09:56AM 61.1596 -29.1142 249° West  Level Estimated
09:57AM 61.1160 -29.3401 248° West  Level Estimated
09:58AM 61.0720 -29.5655 248° West  Level Estimated
09:59AM 61.0277 -29.7902 248° West  Level Estimated
10:00AM 60.9829 -30.0143 248° West  Level Estimated
10:01AM 60.9378 -30.2377 248° West  Level Estimated
10:02AM 60.8924 -30.4606 247° West  Level Estimated
10:03AM 60.8465 -30.6827 247° West  Level Estimated
10:04AM 60.8003 -30.9043 247° West  Level Estimated
10:05AM 60.7538 -31.1252 247° West  Level Estimated
10:06AM 60.7068 -31.3454 247° West  Level Estimated
10:07AM 60.6595 -31.5651 246° West  Level Estimated
10:08AM 60.6119 -31.7840 246° West  Level Estimated
10:09AM 60.5639 -32.0023 246° West  Level Estimated
10:10AM 60.5155 -32.2200 246° West  Level Estimated
10:11AM 60.4668 -32.4370 246° West  Level Estimated
10:12AM 60.4178 -32.6534 245° Southwest  Level Estimated
10:13AM 60.3684 -32.8691 245° Southwest  Level Estimated
10:14AM 60.3186 -33.0842 245° Southwest  Level Estimated
10:15AM 60.2685 -33.2986 245° Southwest  Level Estimated
10:16AM 60.2180 -33.5123 245° Southwest  Level Estimated
10:17AM 60.1672 -33.7254 244° Southwest  Level Estimated
10:18AM 60.1161 -33.9378 244° Southwest  Level Estimated
10:19AM 60.0646 -34.1496 244° Southwest  Level Estimated
10:20AM 60.0128 -34.3607 244° Southwest  Level Estimated
10:21AM 59.9607 -34.5711 244° Southwest  Level Estimated
10:22AM 59.9082 -34.7809 244° Southwest  Level Estimated
10:23AM 59.8554 -34.9900 243° Southwest  Level Estimated
10:24AM 59.8022 -35.1985 243° Southwest  Level Estimated
10:25AM 59.7487 -35.4063 243° Southwest  Level Estimated
10:26AM 59.6950 -35.6134 243° Southwest  Level Estimated
10:27AM 59.6408 -35.8198 243° Southwest  Level Estimated
10:28AM 59.5864 -36.0256 242° Southwest  Level Estimated
10:29AM 59.5316 -36.2307 242° Southwest  Level Estimated
10:30AM 59.4765 -36.4352 242° Southwest  Level Estimated
10:31AM 59.4211 -36.6389 242° Southwest  Level Estimated
10:32AM 59.3654 -36.8421 242° Southwest  Level Estimated
10:33AM 59.3093 -37.0445 242° Southwest  Level Estimated
10:34AM 59.2530 -37.2463 241° Southwest  Level Estimated
10:35AM 59.1963 -37.4474 241° Southwest  Level Estimated
10:36AM 59.1394 -37.6478 241° Southwest  Level Estimated
10:37AM 59.0821 -37.8476 241° Southwest  Level Estimated
10:38AM 59.0245 -38.0467 241° Southwest  Level Estimated
10:39AM 58.9666 -38.2451 241° Southwest  Level Estimated
10:40AM 58.9084 -38.4429 240° Southwest  Level Estimated
10:41AM 58.8499 -38.6400 240° Southwest  Level Estimated
10:42AM 58.7911 -38.8364 240° Southwest  Level Estimated
10:43AM 58.7320 -39.0322 240° Southwest  Level Estimated
10:44AM 58.6726 -39.2273 240° Southwest  Level Estimated
10:45AM 58.6130 -39.4218 240° Southwest  Level Estimated
10:46AM 58.5530 -39.6155 239° Southwest  Level Estimated
10:47AM 58.4927 -39.8087 239° Southwest  Level Estimated
10:48AM 58.4322 -40.0011 239° Southwest  Level Estimated
10:49AM 58.3713 -40.1929 239° Southwest  Level Estimated
10:50AM 58.3102 -40.3840 239° Southwest  Level Estimated
10:51AM 58.2488 -40.5745 239° Southwest  Level Estimated
10:52AM 58.1871 -40.7643 238° Southwest  Level Estimated
10:53AM 58.1251 -40.9534 238° Southwest  Level Estimated
10:54AM 58.0629 -41.1419 238° Southwest  Level Estimated
10:55AM 58.0004 -41.3297 238° Southwest  Level Estimated
10:56AM 57.9375 -41.5169 238° Southwest  Level Estimated
10:57AM 57.8745 -41.7034 238° Southwest  Level Estimated
10:58AM 57.8111 -41.8893 237° Southwest  Level Estimated
10:59AM 57.7475 -42.0745 237° Southwest  Level Estimated
11:00AM 57.6836 -42.2591 237° Southwest  Level Estimated
11:01AM 57.6194 -42.4430 237° Southwest  Level Estimated
11:02AM 57.5550 -42.6262 237° Southwest  Level Estimated
11:03AM 57.4903 -42.8088 237° Southwest  Level Estimated
11:04AM 57.4254 -42.9908 237° Southwest  Level Estimated
11:05AM 57.3602 -43.1721 236° Southwest  Level Estimated
11:06AM 57.2947 -43.3528 236° Southwest  Level Estimated
11:07AM 57.2290 -43.5328 236° Southwest  Level Estimated
11:08AM 57.1630 -43.7122 236° Southwest  Level Estimated
11:09AM 57.0967 -43.8909 236° Southwest  Level Estimated
11:10AM 57.0302 -44.0690 236° Southwest  Level Estimated
11:11AM 56.9635 -44.2465 235° Southwest  Level Estimated
11:12AM 56.8965 -44.4234 235° Southwest  Level Estimated
11:13AM 56.8292 -44.5995 235° Southwest  Level Estimated
11:14AM 56.7617 -44.7751 235° Southwest  Level Estimated
11:15AM 56.6940 -44.9501 235° Southwest  Level Estimated
11:16AM 56.6260 -45.1244 235° Southwest  Level Estimated
11:17AM 56.5578 -45.2980 235° Southwest  Level Estimated
11:18AM 56.4893 -45.4711 234° Southwest  Level Estimated
11:19AM 56.4206 -45.6435 234° Southwest  Level Estimated
11:20AM 56.3517 -45.8153 234° Southwest  Level Estimated
11:21AM 56.2825 -45.9865 234° Southwest  Level Estimated
11:22AM 56.2131 -46.1571 234° Southwest  Level Estimated
11:23AM 56.1434 -46.3270 234° Southwest  Level Estimated
11:24AM 56.0735 -46.4963 234° Southwest  Level Estimated
11:25AM 56.0034 -46.6651 233° Southwest  Level Estimated
11:26AM 55.9331 -46.8332 233° Southwest  Level Estimated
11:27AM 55.8625 -47.0006 233° Southwest  Level Estimated
11:28AM 55.7917 -47.1675 233° Southwest  Level Estimated
11:29AM 55.7207 -47.3338 233° Southwest  Level Estimated
11:30AM 55.6494 -47.4995 233° Southwest  Level Estimated
11:31AM 55.5779 -47.6646 233° Southwest  Level Estimated
11:32AM 55.5062 -47.8290 232° Southwest  Level Estimated
11:33AM 55.4343 -47.9929 232° Southwest  Level Estimated
11:34AM 55.3622 -48.1562 232° Southwest  Level Estimated
11:35AM 55.2899 -48.3189 232° Southwest  Level Estimated
11:36AM 55.2173 -48.4809 232° Southwest  Level Estimated
11:37AM 55.1445 -48.6424 232° Southwest  Level Estimated
11:38AM 55.0715 -48.8033 232° Southwest  Level Estimated
11:39AM 54.9983 -48.9637 232° Southwest  Level Estimated
11:40AM 54.9249 -49.1234 231° Southwest  Level Estimated
11:41AM 54.8513 -49.2826 231° Southwest  Level Estimated
11:42AM 54.7775 -49.4411 231° Southwest  Level Estimated
11:43AM 54.7034 -49.5991 231° Southwest  Level Estimated
11:44AM 54.6292 -49.7565 231° Southwest  Level Estimated
11:45AM 54.5548 -49.9134 231° Southwest  Level Estimated
11:46AM 54.4801 -50.0696 231° Southwest  Level Estimated
11:47AM 54.4053 -50.2253 230° Southwest  Level Estimated
11:48AM 54.3302 -50.3805 230° Southwest  Level Estimated
11:49AM 54.2550 -50.5350 230° Southwest  Level Estimated
11:50AM 54.1796 -50.6890 230° Southwest  Level Estimated
11:51AM 54.1039 -50.8425 230° Southwest  Level Estimated
11:52AM 54.0281 -50.9954 230° Southwest  Level Estimated
11:53AM 53.9521 -51.1477 230° Southwest  Level Estimated
11:54AM 53.8759 -51.2995 230° Southwest  Level Estimated
11:54AM 63.3333 -56.1167 229° Southwest 340 391 36,000  Level Gander Center
11:55AM 53.7995 -51.4507 229° Southwest  Level Estimated
11:55AM 63.2667 -56.3500 238° Southwest 440 506 36,000  Level Gander Center
11:56AM 53.7224 -51.6022 229° Southwest  Level Estimated
11:56AM 63.2000 -56.5833 238° Southwest 430 495 36,000  Level Gander Center
11:57AM 53.6452 -51.7533 229° Southwest  Level Estimated
11:57AM 63.1167 -56.7833 227° Southwest 440 506 36,000  Level Gander Center
11:58AM 53.5677 -51.9037 229° Southwest  Level Estimated
11:58AM 63.0333 -56.9667 225° Southwest 440 506 36,000  Level Gander Center
11:59AM 53.4901 -52.0536 229° Southwest  Level Estimated
11:59AM 62.9667 -57.2000 238° Southwest 440 506 36,000  Level Gander Center
12:00PM 62.8833 -57.4000 228° Southwest 440 506 36,000  Level Gander Center
12:01PM 62.8167 -57.5833 232° Southwest 440 506 36,000  Level Gander Center
12:03PM 62.6833 -57.8500 223° Southwest 440 506 36,000  Level Montreal Center
12:04PM 62.6000 -58.0333 225° Southwest 430 495 36,000  Level Montreal Center
12:05PM 62.5167 -58.2333 228° Southwest 430 495 36,000  Level Montreal Center
12:06PM 62.4500 -58.4667 238° Southwest 440 506 36,000  Level Montreal Center
12:07PM 62.3667 -58.6667 228° Southwest 440 506 36,000  Level Montreal Center
12:08PM 62.3000 -58.8500 232° Southwest 430 495 36,000  Level Montreal Center
12:09PM 62.2000 -59.0500 223° Southwest 440 506 36,000  Level Montreal Center
12:10PM 62.1167 -59.2500 228° Southwest 440 506 36,000  Level Montreal Center
12:11PM 62.0500 -59.4333 232° Southwest 440 506 36,000  Level Montreal Center
12:12PM 61.9667 -59.6167 226° Southwest 430 495 36,000  Level Montreal Center
12:13PM 61.8833 -59.8333 231° Southwest 440 506 36,000  Level Montreal Center
12:14PM 61.7833 -60.0333 223° Southwest 440 506 36,000  Level Montreal Center
12:15PM 61.7167 -60.2167 233° Southwest 440 506 36,000  Level Montreal Center
12:16PM 61.6333 -60.4000 226° Southwest 430 495 36,000  Level Montreal Center
12:17PM 61.5500 -60.5833 226° Southwest 440 506 36,000  Level Montreal Center
12:18PM 61.4667 -60.8000 231° Southwest 450 518 36,000  Level Montreal Center
12:19PM 61.3833 -60.9833 227° Southwest 450 518 36,000  Level Montreal Center
12:20PM 61.3000 -61.1667 227° Southwest 450 518 36,000  Level Montreal Center
12:21PM 61.2000 -61.3500 221° Southwest 450 518 36,000  Level Montreal Center
12:22PM 61.1167 -61.5333 227° Southwest 450 518 36,000  Level Montreal Center
12:23PM 61.0000 -61.9000 237° Southwest 450 518 36,000  Level Gander Center
12:24PM 60.9167 -62.0667 224° Southwest 450 518 36,000  Level Gander Center
12:25PM 60.8500 -62.1167 200° South 450 518 36,000  Level Montreal Center
12:26PM 60.7333 -62.4333 233° Southwest 460 529 36,000  Level Gander Center
12:27PM 60.6500 -62.6333 230° Southwest 460 529 36,000  Level Gander Center
12:28PM 60.5833 -62.6667 194° South 450 518 36,000  Level Montreal Center
12:29PM 60.5000 -62.8833 232° Southwest 450 518 36,000  Level Montreal Center
12:30PM 60.4167 -63.0500 225° Southwest 440 506 36,000  Level Montreal Center
12:31PM 60.3333 -63.2167 225° Southwest 440 506 36,000  Level Montreal Center
12:32PM 60.2500 -63.4000 228° Southwest 440 506 36,000  Level Montreal Center
12:33PM 60.1667 -63.6000 230° Southwest 440 506 36,000  Level Montreal Center
12:34PM 60.0667 -63.7667 220° Southwest 440 506 36,000  Level Montreal Center
12:35PM 59.9833 -63.9333 225° Southwest 440 506 36,000  Level Montreal Center
12:36PM 59.9000 -64.1000 225° Southwest 440 506 36,000  Level Montreal Center
12:37PM 59.8167 -64.2667 225° Southwest 450 518 36,000  Level Montreal Center
12:38PM 59.7167 -64.4667 225° Southwest 450 518 36,000  Level Montreal Center
12:39PM 59.6167 -64.6333 220° Southwest 450 518 36,000  Level Montreal Center
12:40PM 59.5333 -64.8000 225° Southwest 450 518 36,000  Level Montreal Center
12:41PM 59.4500 -64.9500 222° Southwest 450 518 36,000  Level Montreal Center
12:42PM 59.3667 -65.1167 226° Southwest 450 518 36,000  Level Montreal Center
12:43PM 59.2667 -65.3167 226° Southwest 450 518 36,000  Level Montreal Center
12:44PM 59.1833 -65.4667 223° Southwest 450 518 36,000  Level Montreal Center
12:45PM 59.0833 -65.6667 226° Southwest 450 518 36,000  Level Montreal Center
12:46PM 58.9667 -65.8333 216° Southwest 450 518 36,000  Level Montreal Center
12:47PM 58.8833 -65.9833 223° Southwest 450 518 36,000  Level Montreal Center
12:48PM 58.8000 -66.1333 223° Southwest 450 518 36,000  Level Montreal Center
12:49PM 58.7000 -66.3000 221° Southwest 450 518 36,000  Level Montreal Center
12:50PM 58.6167 -66.4833 229° Southwest 450 518 36,000  Level Montreal Center
12:51PM 58.5333 -66.6333 223° Southwest 450 518 36,000  Level Montreal Center
12:52PM 58.4167 -66.8000 217° Southwest 450 518 36,000  Level Montreal Center
12:53PM 58.3333 -66.9500 223° Southwest 450 518 36,000  Level Montreal Center
12:54PM 58.2333 -67.1333 224° Southwest 460 529 36,000  Level Montreal Center
12:55PM 58.1500 -67.2833 224° Southwest 460 529 36,000  Level Montreal Center
12:56PM 58.0333 -67.4333 214° Southwest 460 529 36,000  Level Montreal Center
12:57PM 57.9500 -67.6167 229° Southwest 460 529 36,000  Level Montreal Center
12:58PM 57.8667 -67.7667 224° Southwest 460 529 36,000  Level Montreal Center
12:59PM 57.7667 -67.9000 215° Southwest 450 518 36,000  Level Montreal Center
01:00PM 57.6667 -68.0500 219° Southwest 450 518 36,000  Level Montreal Center
01:01PM 57.5667 -68.2333 225° Southwest 450 518 36,000  Level Montreal Center
01:02PM 57.4667 -68.3833 219° Southwest 450 518 36,000  Level Montreal Center
01:03PM 57.3833 -68.5167 221° Southwest 450 518 36,000  Level Montreal Center
01:04PM 57.2667 -68.7000 220° Southwest 450 518 36,000  Level Montreal Center
01:05PM 57.1833 -68.8500 224° Southwest 460 529 36,000  Level Montreal Center
01:06PM 57.0833 -68.9833 216° Southwest 460 529 36,000  Level Montreal Center
01:07PM 57.0000 -69.1667 230° Southwest 460 529 36,000  Level Montreal Center
01:08PM 56.8833 -69.3000 212° Southwest 460 529 36,000  Level Montreal Center
01:09PM 56.7833 -69.4500 219° Southwest 460 529 36,000  Level Montreal Center
01:10PM 56.7000 -69.6167 228° Southwest 460 529 36,000  Level Montreal Center
01:11PM 56.6000 -69.7500 216° Southwest 460 529 36,000  Level Montreal Center
01:12PM 56.5000 -69.8833 216° Southwest 460 529 36,000  Level Montreal Center
01:13PM 56.4000 -70.0500 223° Southwest 460 529 36,000  Level Montreal Center
01:14PM 56.3000 -70.2000 220° Southwest 460 529 36,000  Level Montreal Center
01:15PM 56.2167 -70.3667 228° Southwest 460 529 36,000  Level Montreal Center
01:16PM 56.1000 -70.5000 213° Southwest 460 529 36,000  Level Montreal Center
01:17PM 56.0000 -70.6333 217° Southwest 460 529 36,000  Level Montreal Center
01:18PM 55.9167 -70.8000 228° Southwest 450 518 36,000  Level Montreal Center
01:19PM 55.8000 -70.9333 213° Southwest 450 518 36,000  Level Montreal Center
01:20PM 55.7000 -71.0667 217° Southwest 450 518 36,000  Level Montreal Center
01:21PM 55.6000 -71.2000 217° Southwest 460 529 36,000  Level Montreal Center
01:22PM 55.4833 -71.3167 210° Southwest 450 518 36,000  Level Montreal Center
01:23PM 55.4000 -71.4833 229° Southwest 460 529 36,000  Level Montreal Center
01:24PM 55.3000 -71.6167 217° Southwest 450 518 36,000  Level Montreal Center
01:25PM 55.2000 -71.7500 217° Southwest 450 518 36,000  Level Montreal Center
01:26PM 55.1000 -71.8667 214° Southwest 450 518 36,000  Level Montreal Center
01:27PM 55.0167 -72.0333 229° Southwest 450 518 36,000  Level Montreal Center
01:28PM 54.9000 -72.1500 210° Southwest 450 518 36,000  Level Montreal Center
01:29PM 54.8000 -72.2833 218° Southwest 450 518 36,000  Level Montreal Center
01:30PM 54.7000 -72.4333 221° Southwest 450 518 36,000  Level Montreal Center
01:31PM 54.6000 -72.5667 218° Southwest 450 518 36,000  Level Montreal Center
01:32PM 54.4833 -72.6833 210° Southwest 450 518 36,000  Level Montreal Center
01:33PM 54.4000 -72.8167 223° Southwest 450 518 36,000  Level Montreal Center
01:34PM 54.3000 -72.9667 221° Southwest 450 518 36,000  Level Montreal Center
01:35PM 54.2000 -73.0833 214° Southwest 450 518 36,000  Level Montreal Center
01:36PM 54.1000 -73.2000 214° Southwest 450 518 36,000  Level Montreal Center
01:37PM 54.0000 -73.3333 218° Southwest 450 518 36,000  Level Montreal Center
01:38PM 53.8833 -73.4833 217° Southwest 450 518 36,000  Level Montreal Center
01:39PM 53.7833 -73.6000 215° Southwest 450 518 36,000  Level Montreal Center
01:40PM 53.6667 -73.7167 211° Southwest 460 529 36,000  Level Montreal Center
01:41PM 53.5500 -73.8167 207° Southwest 460 529 36,000  Level Montreal Center
01:42PM 53.4333 -73.9333 211° Southwest 460 529 36,000  Level Montreal Center
01:43PM 53.3167 -74.0167 203° Southwest 470 541 36,000  Level Montreal Center
01:44PM 53.2000 -74.1000 203° Southwest 470 541 36,000  Level Montreal Center
01:45PM 53.0833 -74.2000 207° Southwest 460 529 36,000  Level Montreal Center
01:46PM 52.9667 -74.3167 211° Southwest 460 529 36,000  Level Montreal Center
01:47PM 52.8833 -74.4000 211° Southwest 460 529 36,000  Level Montreal Center
01:48PM 52.7667 -74.4833 203° Southwest 460 529 36,000  Level Montreal Center
01:49PM 52.6500 -74.5833 207° Southwest 450 518 36,000  Level Montreal Center
01:50PM 52.5167 -74.7000 208° Southwest 460 529 36,000  Level Montreal Center
01:51PM 52.4000 -74.7833 204° Southwest 450 518 36,000  Level Montreal Center
01:52PM 52.2833 -74.8667 204° Southwest 440 506 36,000  Level Montreal Center
01:53PM 52.1667 -74.9500 204° Southwest 460 529 36,000  Level Montreal Center
01:54PM 52.0500 -75.0333 204° Southwest 460 529 36,000  Level Montreal Center
01:55PM 51.9333 -75.1500 212° Southwest 460 529 36,000  Level Montreal Center
01:56PM 51.8167 -75.2333 204° Southwest 460 529 36,000  Level Montreal Center
01:57PM 51.7000 -75.3167 204° Southwest 460 529 36,000  Level Montreal Center
01:58PM 51.5833 -75.4000 204° Southwest 460 529 36,000  Level Montreal Center
01:59PM 51.4667 -75.5000 208° Southwest 460 529 36,000  Level Montreal Center
02:00PM 51.3500 -75.5833 204° Southwest 460 529 36,000  Level Montreal Center
02:01PM 51.2500 -75.6667 208° Southwest 460 529 36,000  Level Montreal Center
02:02PM 51.1167 -75.7500 201° Southwest 460 529 36,000  Level Montreal Center
02:03PM 51.0167 -75.8333 208° Southwest 460 529 36,000  Level Montreal Center
02:04PM 50.8833 -75.9333 205° Southwest 460 529 36,000  Level Montreal Center
02:05PM 50.7833 -76.0167 208° Southwest 460 529 36,000  Level Montreal Center
02:06PM 50.6500 -76.1000 202° Southwest 460 529 36,000  Level Montreal Center
02:07PM 50.5500 -76.1833 208° Southwest 460 529 36,000  Level Montreal Center
02:08PM 50.4167 -76.2833 206° Southwest 460 529 36,000  Level Montreal Center
02:09PM 50.3167 -76.3667 208° Southwest 460 529 36,000  Level Montreal Center
02:10PM 50.2000 -76.4333 200° South 460 529 36,000  Level Montreal Center
02:11PM 50.0667 -76.5167 202° Southwest 460 529 36,000  Level Montreal Center
02:12PM 49.9500 -76.6000 205° Southwest 460 529 36,000  Level Montreal Center
02:13PM 49.8333 -76.7000 209° Southwest 460 529 36,000  Level Montreal Center
02:14PM 49.7167 -76.7667 200° South 460 529 36,000  Level Montreal Center
02:15PM 49.6000 -76.8500 205° Southwest 470 541 36,000  Level Montreal Center
02:16PM 49.4833 -76.9167 200° South 450 518 36,000  Level Montreal Center
02:17PM 49.3667 -77.0167 209° Southwest 490 564 36,000  Level Montreal Center
02:18PM 49.2500 -77.1000 205° Southwest 450 518 36,000  Level Montreal Center
02:19PM 49.1333 -77.1667 201° Southwest 460 529 36,000  Level Montreal Center
02:20PM 49.0167 -77.2500 205° Southwest 460 529 36,000  Level Montreal Center
02:21PM 48.8833 -77.3500 206° Southwest 450 518 36,000  Level Montreal Center
02:22PM 48.7833 -77.4167 204° Southwest 450 518 36,000  Level Montreal Center
02:23PM 48.6667 -77.5000 205° Southwest 450 518 36,000  Level Montreal Center
02:24PM 48.5500 -77.5667 201° Southwest 460 529 36,000  Level Montreal Center
02:25PM 48.4333 -77.6333 201° Southwest 460 529 36,000  Level Montreal Center
02:26PM 48.3167 -77.7333 210° Southwest 460 529 36,000  Level Montreal Center
02:27PM 48.2000 -77.8000 201° Southwest 450 518 36,000  Level Montreal Center
02:28PM 48.0833 -77.8833 206° Southwest 450 518 36,000  Level Montreal Center
02:29PM 47.9500 -77.9500 199° South 460 529 36,000  Level Montreal Center
02:30PM 47.8333 -78.0167 201° Southwest 460 529 36,000  Level Montreal Center
02:31PM 47.7167 -78.0833 201° Southwest 460 529 36,000  Level Montreal Center
02:32PM 47.6000 -78.1667 206° Southwest 460 529 36,000  Level Montreal Center
02:33PM 47.4833 -78.2333 201° Southwest 460 529 36,000  Level Montreal Center
02:34PM 47.3667 -78.3000 201° Southwest 460 529 36,000 -540 Level Montreal Center
02:35PM 44.3000 -77.0833 164° South 490 564 35,000  Descending Montreal Center
02:36PM 47.1167 -78.3833 343° North 460 529 36,000 480 Climbing Toronto Center
02:37PM 47.0167 -78.4500 204° Southwest 460 529 36,000  Level Toronto Center
02:43PM 46.2967 -78.8866 201° Southwest 469 540 36,000  Level FlightAware ADS-B (CYYZ)
02:43PM 46.2160 -78.9307 201° Southwest 470 541 36,000  Level FlightAware ADS-B (CYYZ)
02:44PM 46.1753 -78.9528 201° Southwest 470 541 36,000  Level FlightAware ADS-B (CYYZ)
02:44PM 46.0929 -78.9975 201° Southwest 471 542 36,000  Level FlightAware ADS-B (CYYZ)
02:45PM 46.0340 -79.0294 201° Southwest 471 542 36,000  Level FlightAware ADS-B (CYYZ)
02:45PM 45.9720 -79.0628 201° Southwest 471 542 36,000  Level FlightAware ADS-B (CYYZ)
02:46PM 45.9090 -79.0968 201° Southwest 471 542 36,000  Level FlightAware ADS-B (CYYZ)
02:46PM 45.8500 -79.1286 201° Southwest 471 542 36,000  Level FlightAware ADS-B (CYYZ)
02:47PM 45.7884 -79.1616 201° Southwest 471 542 36,000  Level FlightAware ADS-B (CYYZ)
02:47PM 45.7307 -79.1925 201° Southwest 471 542 36,000  Level FlightAware ADS-B (CYYZ)
02:48PM 45.6691 -79.2253 201° Southwest 470 541 36,000  Level FlightAware ADS-B (CYYZ)
02:48PM 45.6071 -79.2583 201° Southwest 470 541 36,000  Level FlightAware ADS-B (CYYZ)
02:49PM 45.5419 -79.2930 201° Southwest 473 544 36,000  Level FlightAware ADS-B (CYYZ)
02:49PM 45.4817 -79.3249 201° Southwest 474 545 36,000  Level FlightAware ADS-B (CYYZ)
02:50PM 45.4211 -79.3569 201° Southwest 473 544 36,000  Level FlightAware ADS-B (CYYZ)
02:50PM 45.3592 -79.3896 201° Southwest 474 545 36,000  Level FlightAware ADS-B (CYYZ)
02:51PM 45.2975 -79.4220 201° Southwest 474 545 36,000  Level FlightAware ADS-B (CYYZ)
02:51PM 45.2356 -79.4546 201° Southwest 472 543 36,000  Level FlightAware ADS-B (CYYZ)
02:52PM 45.1782 -79.4847 201° Southwest 471 542 36,000  Level FlightAware ADS-B (CYYZ)
02:52PM 45.1213 -79.5144 201° Southwest 469 540 36,000  Level FlightAware ADS-B (CYYZ)
02:53PM 45.0549 -79.5489 201° Southwest 470 541 36,000  Level FlightAware ADS-B (CYYZ)
02:53PM 44.9952 -79.5800 201° Southwest 469 540 36,000  Level FlightAware ADS-B (CYYZ)
02:54PM 44.9814 -79.5872 201° Southwest 469 540 36,000  Level FlightAware ADS-B (CYYZ)
02:56PM 44.7224 -79.7211 201° Southwest 463 533 36,000  Level FlightAware ADS-B (CYYZ)
02:56PM 44.6349 -79.7663 201° Southwest 471 542 36,000  Level FlightAware ADS-B (CYYZ)
02:57PM 44.5261 -79.8412 213° Southwest 453 521 36,000  Level FlightAware ADS-B (CYYZ)
02:58PM 44.4712 -79.8917 214° Southwest 451 519 36,000  Level FlightAware ADS-B (CYYZ)
02:58PM 44.4195 -79.9395 214° Southwest 451 519 36,000  Level FlightAware ADS-B (CYYZ)
02:59PM 44.3662 -79.9876 213° Southwest 451 519 36,000  Level FlightAware ADS-B (CYYZ)
02:59PM 44.3171 -80.0317 213° Southwest 449 517 36,000  Level FlightAware ADS-B (CYYZ)
03:00PM 44.2796 -80.0655 213° Southwest 450 518 36,000  Level FlightAware ADS-B (CYKF)
03:00PM 44.2624 -80.0808 213° Southwest 452 520 36,000  Level FlightAware ADS-B (CYYZ)
03:00PM 44.2092 -80.1284 213° Southwest 453 521 36,000  Level FlightAware ADS-B (CYYZ)
03:01PM 44.1689 -80.1643 213° Southwest 454 522 36,000  Level FlightAware ADS-B (CYKF)
03:01PM 44.1562 -80.1757 213° Southwest 455 524 36,000  Level FlightAware ADS-B (CYYZ)
03:01PM 44.1033 -80.2228 213° Southwest 456 525 36,000  Level FlightAware ADS-B (CYYZ)
03:02PM 44.1002 -80.2255 213° Southwest 456 525 36,000  Level FlightAware ADS-B (CYKF)
03:02PM 44.0501 -80.2699 213° Southwest 456 525 36,000  Level FlightAware ADS-B (CYYZ)
03:02PM 43.9995 -80.3146 213° Southwest 456 525 36,000  Level FlightAware ADS-B (CYYZ)
03:03PM 43.9513 -80.3573 213° Southwest 455 524 36,000  Level FlightAware ADS-B (CYKF)
03:03PM 43.9445 -80.3634 213° Southwest 456 525 36,000  Level FlightAware ADS-B (CYYZ)
03:03PM 43.8908 -80.4107 213° Southwest 456 525 36,000  Level FlightAware ADS-B (CYYZ)
03:03PM 43.8732 -80.4261 212° Southwest 456 525 36,000  Level FlightAware ADS-B (CYKF)
03:04PM 43.8448 -80.4511 213° Southwest 457 526 36,000  Level FlightAware ADS-B (CYYZ)
03:04PM 43.8237 -80.4696 212° Southwest 455 524 36,000  Level FlightAware ADS-B (CZBA)
03:04PM 43.7979 -80.4922 213° Southwest 455 524 36,000  Level FlightAware ADS-B (CYYZ)
03:05PM 43.7480 -80.5359 212° Southwest 453 521 36,000  Level FlightAware ADS-B (CYKF)
03:05PM 43.7374 -80.5452 213° Southwest 454 522 36,000  Level FlightAware ADS-B (CYYZ)
03:05PM 43.6805 -80.5949 213° Southwest 453 521 36,000  Level FlightAware ADS-B (CYYZ)
03:05PM 43.6677 -80.6060 212° Southwest 451 519 36,000  Level FlightAware ADS-B (CZBA)
03:06PM 43.6399 -80.6303 213° Southwest 452 520 36,000  Level FlightAware ADS-B (CYYZ)
03:06PM 43.5788 -80.6835 213° Southwest 448 516 36,000 60 Level FlightAware ADS-B (CYYZ)
03:07PM 43.5773 -80.6847 212° Southwest 445 512 36,100 180 Climbing FlightAware ADS-B (CYKF)
03:07PM 43.5261 -80.7291 213° Southwest 445 512 36,100 600 Level FlightAware ADS-B (CYYZ)
03:07PM 43.4838 -80.7660 213° Southwest 444 511 36,600 900 Climbing FlightAware ADS-B (CYYZ)
03:08PM 43.4209 -80.8207 212° Southwest 453 521 37,000 1,200 Climbing FlightAware ADS-B (CYKF)
03:08PM 43.4085 -80.8315 213° Southwest 455 524 37,200 1,380 Climbing FlightAware ADS-B (CYYZ)
03:08PM 43.3533 -80.8790 213° Southwest 452 520 37,900 1,080 Climbing FlightAware ADS-B (CYYZ)
03:09PM 43.3604 -80.8728 212° Southwest 451 519 38,000 120 Climbing FlightAware ADS-B (CYKF)
03:09PM 43.2828 -80.9395 213° Southwest 457 526 38,000  Level FlightAware ADS-B (CYYZ)
03:09PM 43.2309 -80.9840 213° Southwest 457 526 38,000  Level FlightAware ADS-B (CYYZ)
03:10PM 43.1744 -81.0324 213° Southwest 453 521 38,000  Level FlightAware ADS-B (CYYZ)
03:11PM 43.1218 -81.0774 213° Southwest 449 517 38,000  Level FlightAware ADS-B (CYYZ)
03:11PM 43.1016 -81.0947 212° Southwest 448 516 38,000  Level FlightAware ADS-B (CYKF)
03:11PM 43.0694 -81.1223 213° Southwest 449 517 38,000  Level FlightAware ADS-B (CYYZ)
03:11PM 43.0139 -81.1626 205° Southwest 465 535 38,000  Level FlightAware ADS-B (CYYZ)
03:12PM 43.0066 -81.1670 203° Southwest 468 539 38,000  Level FlightAware ADS-B (CYKF)
03:12PM 42.9541 -81.1986 205° Southwest 467 537 38,000  Level FlightAware ADS-B (CYYZ)
03:12PM 42.8955 -81.2364 206° Southwest 467 537 38,000  Level FlightAware ADS-B (CYYZ)
03:13PM 42.8922 -81.2385 205° Southwest 466 536 38,000  Level FlightAware ADS-B (CYKF)
03:13PM 42.8366 -81.2735 205° Southwest 470 541 38,000  Level FlightAware ADS-B (CYYZ)
03:14PM 42.7258 -81.3310 200° South 476 548 38,000  Level FlightAware ADS-B (CYYZ)
03:14PM 42.6662 -81.3602 201° Southwest 472 543 38,000  Level FlightAware ADS-B (CYYZ)
03:15PM 42.6322 -81.3773 200° South 470 541 38,000  Level FlightAware ADS-B (CYKF)
03:15PM 42.6100 -81.3884 201° Southwest 470 541 38,000  Level FlightAware ADS-B (CYYZ)
03:15PM 42.5412 -81.4234 201° Southwest 470 541 38,000  Level FlightAware ADS-B (CYYZ)
03:16PM 42.4806 -81.4543 201° Southwest 471 542 38,000  Level FlightAware ADS-B (CYYZ)
03:16PM 42.4189 -81.4854 201° Southwest 470 541 38,000  Level FlightAware ADS-B (CYYZ)
03:17PM 42.3611 -81.5145 201° Southwest 471 542 38,000  Level FlightAware ADS-B (CYYZ)
03:17PM 42.2983 -81.5461 201° Southwest 471 542 38,000  Level FlightAware ADS-B (CYYZ)
03:18PM 42.2381 -81.5763 201° Southwest 468 539 38,000  Level FlightAware ADS-B (CYYZ)
03:18PM 42.1800 -81.6054 201° Southwest 465 535 38,000  Level FlightAware ADS-B (CYYZ)
03:19PM 42.1170 -81.6368 201° Southwest 462 532 38,000  Level FlightAware ADS-B (CYYZ)
03:19PM 42.0583 -81.6661 201° Southwest 460 529 38,000  Level FlightAware ADS-B (CYYZ)
03:20PM 41.9973 -81.6965 201° Southwest 458 527 38,000  Level FlightAware ADS-B (CYYZ)
03:20PM 41.9390 -81.7255 201° Southwest 456 525 38,000  Level FlightAware ADS-B (CYYZ)
03:21PM 41.8790 -81.7553 201° Southwest 454 522 38,000  Level FlightAware ADS-B (CYYZ)
03:21PM 41.8206 -81.7842 201° Southwest 453 521 38,000  Level FlightAware ADS-B (CYYZ)
03:22PM 41.7634 -81.8125 201° Southwest 453 521 38,000  Level FlightAware ADS-B (CYYZ)
03:22PM 41.7057 -81.8410 201° Southwest 453 521 38,000  Level FlightAware ADS-B (CYYZ)
03:23PM 41.6437 -81.8717 201° Southwest 454 522 38,000  Level FlightAware ADS-B (CYYZ)
03:23PM 41.5830 -81.9015 201° Southwest 454 522 38,000  Level FlightAware ADS-B (CYYZ)
03:24PM 41.5242 -81.9304 201° Southwest 455 524 38,000  Level FlightAware ADS-B (CYYZ)
03:24PM 41.4771 -81.9534 201° Southwest 457 526 38,000  Level FlightAware ADS-B (CYYZ)
03:25PM 41.4129 -81.9848 201° Southwest 458 527 38,000  Level FlightAware ADS-B (CYYZ)
03:25PM 41.3499 -82.0156 201° Southwest 459 528 38,000  Level FlightAware ADS-B (CYYZ)
03:26PM 41.2989 -82.0408 201° Southwest 454 522 38,000  Level Cleveland Center
03:27PM 41.1803 -82.0972 200° South 455 524 38,000  Level Cleveland Center
03:28PM 41.0461 -82.1628 200° South 455 524 38,000  Level Cleveland Center
03:29PM 40.9275 -82.2200 200° South 454 522 38,000  Level Cleveland Center
03:31PM 40.6459 -82.3546 200° South 449 517 38,000  Level FlightAware ADS-B
03:36PM 40.1517 -82.5774 192° South 470 541 38,000  Level FlightAware ADS-B
03:36PM 40.0710 -82.5912 185° South 483 556 38,000  Level FlightAware ADS-B
03:37PM 39.9733 -82.5992 184° South 484 557 38,000  Level FlightAware ADS-B
03:37PM 39.8872 -82.6064 183° South 488 562 38,000  Level FlightAware ADS-B
03:38PM 39.7847 -82.6134 183° South 490 564 38,000  Level FlightAware ADS-B (KPMH)
03:39PM 39.7254 -82.6174 183° South 490 564 38,000  Level FlightAware ADS-B (KPMH)
03:39PM 39.6425 -82.6229 183° South 489 563 38,000  Level FlightAware ADS-B (KPMH)
03:40PM 39.5905 -82.6263 183° South 488 562 38,000  Level FlightAware ADS-B (KPMH)
03:40PM 39.5113 -82.6317 183° South 489 563 38,000  Level FlightAware ADS-B (KPMH)
03:41PM 39.4101 -82.6385 183° South 490 564 38,000  Level FlightAware ADS-B (KPMH)
03:41PM 39.3421 -82.6430 183° South 490 564 38,000  Level FlightAware ADS-B (KPMH)
03:42PM 39.2748 -82.6475 183° South 492 566 38,000  Level FlightAware ADS-B (KPMH)
03:42PM 39.2032 -82.6522 183° South 491 565 38,000  Level FlightAware ADS-B (KPMH)
03:43PM 39.1413 -82.6564 183° South 491 565 38,000  Level FlightAware ADS-B (KPMH)
03:43PM 39.0741 -82.6608 183° South 492 566 38,000  Level FlightAware ADS-B (KPMH)
03:44PM 38.9994 -82.6658 183° South 493 567 38,000  Level FlightAware ADS-B (KPMH)
03:45PM 38.9186 -82.6712 183° South 495 570 38,000  Level FlightAware ADS-B (KPMH)
03:45PM 38.8183 -82.6777 183° South 495 570 38,000  Level FlightAware ADS-B (KPMH)
03:46PM 38.7398 -82.6829 183° South 494 568 38,000  Level FlightAware ADS-B (KPMH)
03:47PM 38.6392 -82.6895 183° South 492 566 38,000  Level FlightAware ADS-B (KPMH)
03:47PM 38.5600 -82.6950 183° South 489 563 38,000  Level Indianapolis Center
03:48PM 38.4244 -82.7047 183° South 489 563 38,000  Level Indianapolis Center
03:49PM 38.2900 -82.7131 183° South 489 563 38,000  Level Indianapolis Center
03:50PM 38.1361 -82.7231 183° South 478 550 38,000  Level Indianapolis Center
03:51PM 38.0058 -82.7325 183° South 471 542 38,000  Level Indianapolis Center
03:52PM 37.8758 -82.7414 183° South 470 541 38,000  Level Indianapolis Center
03:54PM 37.7461 -82.7497 183° South 469 540 38,000  Level Indianapolis Center
03:55PM 37.6256 -82.7933 196° South 454 522 38,000  Level Indianapolis Center
03:56PM 37.4975 -82.8714 206° Southwest 440 506 38,000  Level Indianapolis Center
03:57PM 37.3886 -82.9433 208° Southwest 440 506 38,000  Level Indianapolis Center
03:58PM 37.2797 -83.0150 208° Southwest 441 507 38,000  Level Indianapolis Center
03:59PM 37.1711 -83.0861 208° Southwest 442 509 38,000  Level Indianapolis Center
04:00PM 37.0444 -83.1675 207° Southwest 442 509 38,000  Level Indianapolis Center
04:01PM 36.9358 -83.2381 207° Southwest 442 509 38,000  Level Indianapolis Center
04:02PM 36.8261 -83.3083 207° Southwest 443 510 38,000  Level Indianapolis Center
04:03PM 36.7153 -83.3800 207° Southwest 446 513 38,000  Level Indianapolis Center
04:04PM 36.6050 -83.4492 207° Southwest 446 513 38,000  Level Indianapolis Center
04:05PM 36.4919 -83.5211 207° Southwest 445 512 38,000  Level Indianapolis Center
04:06PM 36.3600 -83.6056 207° Southwest 445 512 38,000  Level Indianapolis Center
04:07PM 36.2492 -83.6750 207° Southwest 445 512 38,000  Level Indianapolis Center
04:08PM 36.1392 -83.7461 208° Southwest 445 512 38,000  Level Indianapolis Center
04:09PM 36.0517 -83.8025 208° Southwest 442 509 38,000  Level Atlanta Center
04:10PM 35.9414 -83.8719 207° Southwest 442 509 38,100  Climbing Atlanta Center
04:16PM 35.1776 -84.0708 191° South 462 532 38,000 -60 Descending FlightAware ADS-B (KDZJ)
04:16PM 35.1111 -84.0868 191° South 461 531 38,000  Level FlightAware ADS-B (KDZJ)
04:17PM 35.0093 -84.1110 191° South 461 531 38,000  Level FlightAware ADS-B (KDZJ)
04:18PM 34.9289 -84.1301 191° South 461 531 38,000  Level FlightAware ADS-B (KDZJ)
04:18PM 34.8477 -84.1496 191° South 461 531 38,000  Level FlightAware ADS-B (KDZJ)
04:19PM 34.7683 -84.1686 191° South 460 529 38,000  Level FlightAware ADS-B (KDZJ)
04:20PM 34.6728 -84.1909 191° South 458 527 38,000  Level FlightAware ADS-B (KDZJ)
04:20PM 34.6037 -84.2074 191° South 457 526 38,000  Level FlightAware ADS-B (KDZJ)
04:21PM 34.5122 -84.2290 191° South 456 525 38,000  Level FlightAware ADS-B (KDZJ)
04:22PM 34.4285 -84.2487 191° South 446 513 38,000  Level FlightAware ADS-B (KDZJ)
04:22PM 34.3413 -84.2693 191° South 455 524 38,000  Level FlightAware ADS-B (KDZJ)
04:23PM 34.2592 -84.2885 191° South 455 524 38,000  Level FlightAware ADS-B (KDZJ)
04:24PM 34.1754 -84.3081 191° South 447 514 38,000  Level FlightAware ADS-B (KDZJ)
04:24PM 34.0941 -84.3272 191° South 446 513 38,000  Level FlightAware ADS-B (KDZJ)
04:25PM 34.0103 -84.3466 191° South 455 524 38,000  Level FlightAware ADS-B (KDZJ)
04:26PM 33.9313 -84.3650 191° South 445 512 38,000  Level FlightAware ADS-B (KDZJ)
04:27PM 33.8125 -84.3939 191° South 456 525 38,000  Level Atlanta Center
04:28PM 33.6956 -84.4208 191° South 444 511 38,000  Level Atlanta Center
04:29PM 33.5703 -84.4378 186° South 449 517 38,000  Level Atlanta Center
04:30PM 33.4472 -84.4347 179° South 444 511 38,000  Level Atlanta Center
04:31PM 33.3219 -84.4317 179° South 438 504 38,000  Level Atlanta Center
04:32PM 33.1967 -84.4311 180° South 443 510 38,000  Level Atlanta Center
04:33PM 33.0714 -84.4281 179° South 443 510 38,000  Level Atlanta Center
04:34PM 32.9442 -84.4275 180° South 455 524 38,000 -180 Level Atlanta Center
04:35PM 32.8356 -84.4269 180° South 448 516 37,700 -420 Descending Atlanta Center
04:36PM 32.7167 -84.4167 176° South 441 507 37,200 -360 Descending Atlanta Center
04:37PM 32.5914 -84.4161 180° South 441 507 37,000 -120 Descending Atlanta Center
04:38PM 32.4703 -84.4131 179° South 441 507 37,000 -180 Level Atlanta Center
04:39PM 32.3533 -84.4125 180° South 435 501 36,700 -600 Descending Atlanta Center
04:40PM 32.2303 -84.4097 179° South 435 501 35,800 -1,020 Descending Atlanta Center
04:41PM 32.0386 -84.4047 179° South 429 494 34,100 -1,200 Descending Jacksonville Center
04:42PM 31.9153 -84.4028 179° South 429 494 32,800 -1,380 Descending Jacksonville Center
04:43PM 31.7922 -84.4008 179° South 440 506 31,400 -300 Descending Jacksonville Center
04:50PM 30.9276 -84.3811 179° South 487 560 31,000 -60 Descending FlightAware ADS-B (KTLH)
04:50PM 30.8308 -84.3791 179° South 476 548 31,000  Level FlightAware ADS-B (KTLH)
04:51PM 30.7654 -84.3779 179° South 478 550 31,000  Level FlightAware ADS-B (KTLH)
04:52PM 30.6637 -84.3720 173° South 482 555 31,000  Level FlightAware ADS-B (KTLH)
04:52PM 30.5953 -84.3585 168° South 486 559 31,000  Level FlightAware ADS-B (KTLH)
04:53PM 30.5303 -84.3380 162° South 493 567 31,000  Level FlightAware ADS-B (KTLH)
04:53PM 30.4654 -84.3093 157° South 499 574 31,000  Level FlightAware ADS-B (KTLH)
04:54PM 30.3938 -84.2670 150° Southeast 506 582 31,000  Level FlightAware ADS-B (KTLH)
04:54PM 30.3210 -84.2194 151° Southeast 506 582 31,000  Level FlightAware ADS-B (KTLH)
04:55PM 30.1956 -84.1422 151° Southeast 496 571 31,000  Level Jacksonville Center
04:56PM 30.0733 -84.0592 150° Southeast 501 577 31,000  Level Jacksonville Center
04:57PM 29.9508 -83.9808 151° Southeast 501 577 31,000  Level Jacksonville Center
04:58PM 29.8303 -83.9031 151° Southeast 501 577 31,000  Level Jacksonville Center
04:59PM 29.6953 -83.8156 151° Southeast 501 577 31,000  Level Jacksonville Center
05:00PM 29.5747 -83.7378 151° Southeast 501 577 31,000  Level Jacksonville Center
05:01PM 29.4542 -83.6606 151° Southeast 494 568 31,000  Level Jacksonville Center
05:02PM 29.3294 -83.5811 151° Southeast 499 574 31,000  Level Jacksonville Center
05:03PM 29.2044 -83.4992 150° Southeast 499 574 31,000  Level Jacksonville Center
05:09PM 28.4604 -83.0286 151° Southeast 518 596 31,000  Level FlightAware ADS-B (KMCO)
05:10PM 28.3816 -82.9793 151° Southeast 517 595 31,000  Level FlightAware ADS-B (KMCO)
05:11PM 28.2412 -82.8915 151° Southeast 514 592 31,000  Level FlightAware ADS-B (KMCO)
05:12PM 28.1109 -82.8104 151° Southeast 510 587 31,000  Level FlightAware ADS-B (KMCO)
05:13PM 28.0078 -82.7463 151° Southeast 508 585 31,000  Level FlightAware ADS-B (KMCO)
05:14PM 27.8682 -82.6594 150° Southeast 510 587 31,000  Level FlightAware ADS-B (KMCO)
05:15PM 27.8015 -82.6141 149° Southeast 512 589 31,000  Level FlightAware ADS-B (KMCO)
05:15PM 27.7266 -82.5634 149° Southeast 509 586 31,000  Level FlightAware ADS-B (KMCO)
05:16PM 27.6578 -82.5175 149° Southeast 507 583 31,000  Level FlightAware ADS-B (KMCO)
05:16PM 27.5899 -82.4816 158° South 495 570 31,000  Level FlightAware ADS-B (KMCO)
05:17PM 27.4983 -82.4390 157° South 498 573 31,000  Level FlightAware ADS-B (KMCO)
05:18PM 27.3407 -82.3940 164° South 491 565 31,000  Level FlightAware ADS-B (KMCO)
05:20PM 27.0498 -82.3291 169° South 481 554 31,000  Level FlightAware ADS-B (KMCO)
05:21PM 26.9673 -82.3108 169° South 479 551 31,000  Level FlightAware ADS-B (KMCO)
05:22PM 26.8774 -82.2909 169° South 478 550 31,000  Level FlightAware ADS-B (KMCO)
05:23PM 26.7772 -82.2688 169° South 479 551 31,000  Level FlightAware ADS-B (KMCO)
05:23PM 26.6647 -82.2440 169° South 477 549 31,000  Level FlightAware ADS-B (KMCO)
05:24PM 26.5929 -82.2282 169° South 477 549 31,000  Level FlightAware ADS-B (KMCO)
05:25PM 26.5072 -82.2094 169° South 477 549 31,000  Level FlightAware ADS-B (KMCO)
05:25PM 26.4222 -82.1907 169° South 476 548 31,000  Level FlightAware ADS-B (KMCO)
05:26PM 26.3607 -82.1772 169° South 477 549 31,000  Level FlightAware ADS-B (KMCO)
05:26PM 26.2763 -82.1588 169° South 479 551 31,000  Level FlightAware ADS-B (KMCO)
05:27PM 26.1861 -82.1391 169° South 479 551 31,000  Level FlightAware ADS-B (KMCO)
05:28PM 26.1105 -82.1226 169° South 478 550 31,000  Level FlightAware ADS-B (KMCO)
05:28PM 26.0338 -82.1059 169° South 476 548 31,000  Level FlightAware ADS-B (KMCO)
05:29PM 25.9631 -82.0904 169° South 475 547 31,000  Level FlightAware ADS-B (KMCO)
05:29PM 25.8867 -82.0738 169° South 475 547 31,000  Level FlightAware ADS-B (KMCO)
05:30PM 25.7747 -82.0496 169° South 474 545 31,000  Level FlightAware ADS-B (KMCO)
05:31PM 25.7256 -82.0406 169° South 483 556 31,000  Level Miami Center
05:32PM 25.5950 -82.0097 168° South 483 556 31,000  Level Miami Center
05:33PM 25.4644 -81.9836 170° South 483 556 31,000  Level Miami Center
05:34PM 25.3319 -81.9550 169° South 483 556 31,000  Level Miami Center
05:35PM 25.2011 -81.9264 169° South 483 556 31,000  Level Miami Center
05:36PM 25.0728 -81.9006 170° South 483 556 31,000  Level Miami Center
05:37PM 24.9400 -81.8722 169° South 483 556 31,000  Level Miami Center
05:38PM 24.8133 -81.8486 170° South 477 549 31,000  Level Miami Center
05:39PM 24.6836 -81.8572 183° South 472 543 31,000  Level Miami Center
05:40PM 24.5614 -81.8911 194° South 464 534 31,000  Level Miami Center
05:41PM 24.4550 -81.9506 207° Southwest 439 505 31,000 -180 Level Miami Center
05:42PM 24.3664 -82.0336 220° Southwest 425 489 30,700 -600 Descending Miami Center
05:43PM 24.3006 -82.1267 232° Southwest 402 463 29,900 -840 Descending Miami Center
05:45PM 24.1569 -82.2903 232° Southwest  Level FlightAware Approximate
05:52PM 23.4378 -82.4417 172° South  Level FlightAware Approximate
05:53PM 23.3196 -82.4270 175° South  Level FlightAware Approximate
05:54PM 23.2010 -82.4167 180° South  Level FlightAware Approximate
05:55PM 23.0828 -82.4066 170° South  Level FlightAware Approximate
05:56PM 22.9891 -82.4091 180° South  Level Estimated
05:57PM 22.9891 -82.4091 180° South  Level Estimated
05:58PM 22.9891 -82.4091 180° South  Level Estimated
05:59PM 22.9891 -82.4091 180° South  Level Estimated
06:00PM 22.9891 -82.4091 180° South  Level Estimated
06:01PM 22.9891 -82.4091 180° South  Level Estimated
06:02PM 22.9891 -82.4091 180° South  Level Estimated
06:03PM 22.9891 -82.4091 180° South  Level Estimated
06:04PM 22.9891 -82.4091 180° South  Level Estimated
06:05PM 22.9891 -82.4091 180° South  Level Estimated
06:06PM 22.9891 -82.4091 180° South  Level Estimated
06:07PM 22.9891 -82.4091 180° South  Level Estimated
06:08PM 22.9891 -82.4091 180° South  Level Estimated
06:09PM 22.9891 -82.4091 180° South  Level Estimated
06:10PM 22.9891 -82.4091 180° South  Level Estimated
06:11PM 22.9891 -82.4091 180° South  Level Estimated
06:12PM 22.9891 -82.4091 180° South  Level Estimated
06:13PM 22.9891 -82.4091 180° South  Level Estimated
06:14PM 22.9891 -82.4091 180° South  Level Estimated
06:15PM 22.9891 -82.4091 180° South  Level Estimated
06:16PM 22.9891 -82.4091 180° South  Level Estimated
06:17PM 22.9891 -82.4091 180° South  Level Estimated
06:18PM 22.9891 -82.4091 180° South  Level Estimated